createdAt,value
2017-10-19T00:01:29.735Z,978.25
2017-10-19T00:02:29.646Z,978.22
2017-10-19T00:04:22.568Z,978.21
2017-10-19T00:05:22.443Z,978.22
2017-10-19T00:07:15.427Z,978.25
2017-10-19T00:08:15.118Z,978.30
2017-10-19T00:10:07.890Z,978.29
2017-10-19T00:11:07.767Z,978.31
2017-10-19T00:13:00.556Z,978.31
2017-10-19T00:14:00.474Z,978.26
2017-10-19T00:15:53.257Z,978.27
2017-10-19T00:16:53.120Z,978.28
2017-10-19T00:18:45.892Z,978.27
2017-10-19T00:19:45.836Z,978.30
2017-10-19T00:21:38.553Z,978.26
2017-10-19T00:22:38.469Z,978.31
2017-10-19T00:24:31.176Z,978.33
2017-10-19T00:25:31.092Z,978.32
2017-10-19T00:27:23.872Z,978.33
2017-10-19T00:28:23.743Z,978.30
2017-10-19T00:30:16.609Z,978.35
2017-10-19T00:31:16.500Z,978.38
2017-10-19T00:33:09.647Z,978.33
2017-10-19T00:34:09.152Z,978.33
2017-10-19T00:36:01.946Z,978.34
2017-10-19T00:37:01.822Z,978.34
2017-10-19T00:38:54.560Z,978.36
2017-10-19T00:39:54.478Z,978.33
2017-10-19T00:41:47.304Z,978.32
2017-10-19T00:42:47.140Z,978.31
2017-10-19T00:44:39.925Z,978.33
2017-10-19T00:45:39.828Z,978.31
2017-10-19T00:47:32.604Z,978.34
2017-10-19T00:48:32.476Z,978.33
2017-10-19T00:50:25.296Z,978.31
2017-10-19T00:51:25.214Z,978.28
2017-10-19T00:53:18.180Z,978.28
2017-10-19T00:54:17.873Z,978.28
2017-10-19T00:56:11.178Z,978.31
2017-10-19T00:57:10.523Z,978.33
2017-10-19T00:59:03.253Z,978.37
2017-10-19T01:00:03.165Z,978.39
2017-10-19T01:01:56.056Z,978.37
2017-10-19T01:02:55.925Z,978.32
2017-10-19T01:04:48.721Z,978.31
2017-10-19T01:05:48.600Z,978.27
2017-10-19T01:07:41.376Z,978.26
2017-10-19T01:08:41.274Z,978.29
2017-10-19T01:10:34.006Z,978.29
2017-10-19T01:11:33.882Z,978.29
2017-10-19T01:13:26.737Z,978.27
2017-10-19T01:14:26.592Z,978.25
2017-10-19T01:16:19.400Z,978.20
2017-10-19T01:17:19.262Z,978.21
2017-10-19T01:19:12.062Z,978.20
2017-10-19T01:20:11.918Z,978.16
2017-10-19T01:22:04.751Z,978.17
2017-10-19T01:23:04.563Z,978.15
2017-10-19T01:24:57.303Z,978.13
2017-10-19T01:25:57.221Z,978.12
2017-10-19T01:27:50.660Z,978.08
2017-10-19T01:28:50.566Z,978.06
2017-10-19T01:30:43.558Z,978.07
2017-10-19T01:31:43.295Z,978.04
2017-10-19T01:33:35.955Z,978.02
2017-10-19T01:34:35.872Z,978.01
2017-10-19T01:36:28.554Z,978.00
2017-10-19T01:37:28.472Z,977.97
2017-10-19T01:39:21.271Z,977.94
2017-10-19T01:40:21.158Z,977.91
2017-10-19T01:42:14.031Z,977.91
2017-10-19T01:43:13.834Z,977.90
2017-10-19T01:45:06.732Z,977.88
2017-10-19T01:46:06.464Z,977.88
2017-10-19T01:47:59.277Z,977.91
2017-10-19T01:48:59.135Z,977.88
2017-10-19T01:50:51.959Z,977.86
2017-10-19T01:51:51.820Z,977.85
2017-10-19T01:53:44.694Z,977.90
2017-10-19T01:54:44.501Z,977.87
2017-10-19T01:56:37.223Z,977.89
2017-10-19T01:57:37.149Z,977.88
2017-10-19T01:59:29.908Z,977.87
2017-10-19T02:00:29.779Z,977.85
2017-10-19T02:02:22.526Z,977.79
2017-10-19T02:03:22.444Z,977.82
2017-10-19T02:05:15.410Z,977.81
2017-10-19T02:06:15.111Z,977.78
2017-10-19T02:08:07.853Z,977.77
2017-10-19T02:09:07.758Z,977.74
2017-10-19T02:11:00.549Z,977.71
2017-10-19T02:12:00.422Z,977.73
2017-10-19T02:13:53.181Z,977.74
2017-10-19T02:14:53.104Z,977.67
2017-10-19T02:16:45.941Z,977.71
2017-10-19T02:17:45.972Z,977.70
2017-10-19T02:19:38.548Z,977.71
2017-10-19T02:20:38.400Z,977.71
2017-10-19T02:22:31.142Z,977.71
2017-10-19T02:23:31.058Z,977.69
2017-10-19T02:25:24.410Z,977.66
2017-10-19T02:26:24.281Z,977.65
2017-10-19T02:28:17.069Z,977.65
2017-10-19T02:29:16.993Z,977.63
2017-10-19T02:31:09.793Z,977.66
2017-10-19T02:32:09.789Z,977.67
2017-10-19T02:34:02.342Z,977.72
2017-10-19T02:35:02.260Z,977.76
2017-10-19T02:36:55.047Z,977.77
2017-10-19T02:37:54.922Z,977.76
2017-10-19T02:39:47.671Z,977.80
2017-10-19T02:40:47.589Z,977.79
2017-10-19T02:42:40.431Z,977.79
2017-10-19T02:43:40.254Z,977.78
2017-10-19T02:45:32.981Z,977.76
2017-10-19T02:46:32.897Z,977.76
2017-10-19T02:48:25.791Z,977.78
2017-10-19T02:49:25.662Z,977.82
2017-10-19T02:51:18.468Z,977.86
2017-10-19T02:52:18.369Z,977.84
2017-10-19T02:54:11.613Z,977.85
2017-10-19T02:55:11.611Z,977.84
2017-10-19T02:57:04.272Z,977.80
2017-10-19T02:58:04.137Z,977.77
2017-10-19T02:59:56.853Z,977.74
2017-10-19T03:00:56.771Z,977.74
2017-10-19T03:02:49.568Z,977.74
2017-10-19T03:03:49.477Z,977.75
2017-10-19T03:05:42.290Z,977.77
2017-10-19T03:06:42.096Z,977.74
2017-10-19T03:08:34.898Z,977.81
2017-10-19T03:09:34.759Z,977.76
2017-10-19T03:11:27.493Z,977.82
2017-10-19T03:12:27.409Z,977.77
2017-10-19T03:14:20.749Z,977.82
2017-10-19T03:15:20.692Z,977.82
2017-10-19T03:17:13.363Z,977.79
2017-10-19T03:18:13.284Z,977.87
2017-10-19T03:20:06.029Z,977.88
2017-10-19T03:21:05.902Z,977.91
2017-10-19T03:22:58.675Z,977.96
2017-10-19T03:23:58.545Z,977.97
2017-10-19T03:25:51.540Z,978.01
2017-10-19T03:26:51.339Z,977.97
2017-10-19T03:28:44.334Z,977.93
2017-10-19T03:29:44.349Z,977.92
2017-10-19T03:31:36.766Z,977.91
2017-10-19T03:32:36.677Z,977.93
2017-10-19T03:34:29.448Z,977.92
2017-10-19T03:35:29.314Z,977.94
2017-10-19T03:37:22.055Z,977.95
2017-10-19T03:38:21.986Z,977.92
2017-10-19T03:40:15.023Z,977.95
2017-10-19T03:41:14.721Z,977.95
2017-10-19T03:43:07.415Z,977.95
2017-10-19T03:44:07.287Z,977.93
2017-10-19T03:46:00.060Z,977.93
2017-10-19T03:46:59.928Z,977.92
2017-10-19T03:48:52.836Z,977.95
2017-10-19T03:49:52.712Z,977.96
2017-10-19T03:51:45.562Z,977.94
2017-10-19T03:52:45.425Z,977.93
2017-10-19T03:54:38.621Z,977.94
2017-10-19T03:55:38.074Z,977.91
2017-10-19T03:57:30.887Z,977.86
2017-10-19T03:58:30.758Z,977.85
2017-10-19T04:00:23.581Z,977.81
2017-10-19T04:01:23.487Z,977.84
2017-10-19T04:03:16.412Z,977.83
2017-10-19T04:04:16.194Z,977.86
2017-10-19T04:06:09.020Z,977.90
2017-10-19T04:07:08.841Z,977.93
2017-10-19T04:09:01.661Z,977.92
2017-10-19T04:10:01.578Z,977.99
2017-10-19T04:11:55.459Z,977.97
2017-10-19T04:12:55.066Z,977.98
2017-10-19T04:14:47.850Z,977.99
2017-10-19T04:15:47.759Z,977.98
2017-10-19T04:17:41.107Z,977.97
2017-10-19T04:18:40.970Z,977.93
2017-10-19T04:20:33.614Z,977.90
2017-10-19T04:21:33.532Z,977.88
2017-10-19T04:23:26.414Z,977.87
2017-10-19T04:24:26.282Z,977.88
2017-10-19T04:26:19.117Z,977.89
2017-10-19T04:27:18.956Z,977.92
2017-10-19T04:29:11.749Z,977.92
2017-10-19T04:30:11.687Z,977.95
2017-10-19T04:32:04.896Z,977.92
2017-10-19T04:33:04.755Z,977.96
2017-10-19T04:34:57.491Z,977.94
2017-10-19T04:35:57.412Z,977.96
2017-10-19T04:37:50.311Z,977.92
2017-10-19T04:38:50.163Z,977.93
2017-10-19T04:40:42.958Z,977.93
2017-10-19T04:41:42.902Z,977.94
2017-10-19T04:43:35.632Z,977.93
2017-10-19T04:44:35.472Z,977.92
2017-10-19T04:46:28.269Z,977.89
2017-10-19T04:47:28.138Z,977.90
2017-10-19T04:49:21.008Z,977.88
2017-10-19T04:50:20.943Z,977.87
2017-10-19T04:52:13.763Z,977.92
2017-10-19T04:53:13.686Z,977.91
2017-10-19T04:55:06.313Z,977.95
2017-10-19T04:56:06.228Z,977.98
2017-10-19T04:57:59.022Z,977.97
2017-10-19T04:58:58.890Z,977.95
2017-10-19T05:00:51.673Z,977.92
2017-10-19T05:01:51.578Z,977.93
2017-10-19T05:03:44.462Z,977.87
2017-10-19T05:04:44.244Z,977.91
2017-10-19T05:06:37.019Z,977.84
2017-10-19T05:07:36.891Z,977.86
2017-10-19T05:09:29.637Z,977.84
2017-10-19T05:10:29.554Z,977.87
2017-10-19T05:12:22.346Z,977.88
2017-10-19T05:13:22.219Z,977.88
2017-10-19T05:15:14.987Z,977.93
2017-10-19T05:16:14.917Z,977.93
2017-10-19T05:18:07.679Z,977.92
2017-10-19T05:19:07.544Z,977.91
2017-10-19T05:21:00.293Z,977.93
2017-10-19T05:22:00.208Z,977.96
2017-10-19T05:23:53.016Z,977.98
2017-10-19T05:24:52.886Z,977.99
2017-10-19T05:26:45.928Z,977.98
2017-10-19T05:27:45.587Z,977.98
2017-10-19T05:29:38.841Z,978.01
2017-10-19T05:30:38.732Z,977.99
2017-10-19T05:32:31.995Z,978.00
2017-10-19T05:33:31.867Z,978.03
2017-10-19T05:35:24.643Z,978.07
2017-10-19T05:36:24.564Z,978.03
2017-10-19T05:38:17.512Z,978.05
2017-10-19T05:39:17.363Z,978.02
2017-10-19T05:41:10.898Z,978.03
2017-10-19T05:42:10.098Z,978.07
2017-10-19T05:44:02.812Z,978.10
2017-10-19T05:45:02.695Z,978.13
2017-10-19T05:46:55.580Z,978.12
2017-10-19T05:47:55.454Z,978.12
2017-10-19T05:49:48.211Z,978.12
2017-10-19T05:50:48.114Z,978.13
2017-10-19T05:52:40.975Z,978.09
2017-10-19T05:53:40.763Z,978.10
2017-10-19T05:55:33.512Z,978.09
2017-10-19T05:56:33.425Z,978.10
2017-10-19T05:58:26.234Z,978.15
2017-10-19T05:59:26.094Z,978.13
2017-10-19T06:01:18.904Z,978.16
2017-10-19T06:02:18.841Z,978.17
2017-10-19T06:04:11.749Z,978.17
2017-10-19T06:05:11.472Z,978.16
2017-10-19T06:07:04.241Z,978.16
2017-10-19T06:08:04.127Z,978.14
2017-10-19T06:09:57.070Z,978.16
2017-10-19T06:10:56.986Z,978.20
2017-10-19T06:12:49.870Z,978.22
2017-10-19T06:13:49.677Z,978.27
2017-10-19T06:15:42.586Z,978.32
2017-10-19T06:16:42.514Z,978.29
2017-10-19T06:18:35.153Z,978.32
2017-10-19T06:19:35.014Z,978.31
2017-10-19T06:21:27.728Z,978.30
2017-10-19T06:22:27.650Z,978.33
2017-10-19T06:24:20.441Z,978.32
2017-10-19T06:25:20.327Z,978.34
2017-10-19T06:27:13.472Z,978.37
2017-10-19T06:28:12.995Z,978.39
2017-10-19T06:30:05.713Z,978.43
2017-10-19T06:31:05.615Z,978.45
2017-10-19T06:32:58.412Z,978.47
2017-10-19T06:33:58.282Z,978.48
2017-10-19T06:35:51.066Z,978.50
2017-10-19T06:36:50.990Z,978.53
2017-10-19T06:38:43.833Z,978.58
2017-10-19T06:39:43.788Z,978.55
2017-10-19T06:41:36.374Z,978.58
2017-10-19T06:42:36.289Z,978.57
2017-10-19T06:44:29.065Z,978.58
2017-10-19T06:45:28.936Z,978.56
2017-10-19T06:47:22.485Z,978.58
2017-10-19T06:48:22.571Z,978.56
2017-10-19T06:50:15.143Z,978.59
2017-10-19T06:51:15.135Z,978.55
2017-10-19T06:53:07.918Z,978.51
2017-10-19T06:54:07.743Z,978.52
2017-10-19T06:56:00.883Z,978.52
2017-10-19T06:57:00.799Z,978.54
2017-10-19T06:58:53.596Z,978.56
2017-10-19T06:59:53.500Z,978.56
2017-10-19T07:01:46.384Z,978.58
2017-10-19T07:02:46.166Z,978.56
2017-10-19T07:04:38.950Z,978.61
2017-10-19T07:05:38.807Z,978.64
2017-10-19T07:07:31.663Z,978.62
2017-10-19T07:08:31.535Z,978.66
2017-10-19T07:10:24.285Z,978.70
2017-10-19T07:11:24.194Z,978.72
2017-10-19T07:13:17.192Z,978.76
2017-10-19T07:14:16.956Z,978.76
2017-10-19T07:16:09.707Z,978.79
2017-10-19T07:17:09.648Z,978.79
2017-10-19T07:19:02.397Z,978.81
2017-10-19T07:20:02.267Z,978.84
2017-10-19T07:21:55.270Z,978.87
2017-10-19T07:22:55.140Z,978.85
2017-10-19T07:24:47.971Z,978.86
2017-10-19T07:25:47.880Z,978.87
2017-10-19T07:27:40.944Z,978.84
2017-10-19T07:28:40.571Z,978.83
2017-10-19T07:30:33.260Z,978.82
2017-10-19T07:31:33.176Z,978.81
2017-10-19T07:33:26.008Z,978.79
2017-10-19T07:34:25.877Z,978.80
2017-10-19T07:36:18.666Z,978.79
2017-10-19T07:37:18.567Z,978.77
2017-10-19T07:39:11.436Z,978.80
2017-10-19T07:40:11.328Z,978.79
2017-10-19T07:42:04.037Z,978.80
2017-10-19T07:43:03.861Z,978.80
2017-10-19T07:44:56.621Z,978.89
2017-10-19T07:45:56.537Z,978.85
2017-10-19T07:47:49.450Z,978.83
2017-10-19T07:48:49.236Z,978.85
2017-10-19T07:50:41.950Z,978.80
2017-10-19T07:51:41.851Z,978.83
2017-10-19T07:53:34.655Z,978.83
2017-10-19T07:54:34.493Z,978.82
2017-10-19T07:56:27.263Z,978.84
2017-10-19T07:57:27.178Z,978.88
2017-10-19T07:59:19.970Z,978.88
2017-10-19T08:00:19.839Z,978.88
2017-10-19T08:02:12.746Z,978.91
2017-10-19T08:03:12.501Z,978.86
2017-10-19T08:05:05.231Z,978.88
2017-10-19T08:06:05.136Z,978.89
2017-10-19T08:07:57.920Z,978.86
2017-10-19T08:08:57.789Z,978.87
2017-10-19T08:10:50.843Z,978.88
2017-10-19T08:11:50.737Z,978.89
2017-10-19T08:13:43.589Z,978.92
2017-10-19T08:14:43.479Z,978.93
2017-10-19T08:16:36.610Z,978.94
2017-10-19T08:17:36.552Z,978.93
2017-10-19T08:19:29.313Z,978.94
2017-10-19T08:20:29.184Z,978.93
2017-10-19T08:22:22.077Z,979.02
2017-10-19T08:23:21.931Z,978.96
2017-10-19T08:25:14.698Z,978.99
2017-10-19T08:26:14.598Z,978.98
2017-10-19T08:28:07.403Z,978.93
2017-10-19T08:29:07.249Z,978.96
2017-10-19T08:30:59.995Z,978.96
2017-10-19T08:31:59.920Z,978.97
2017-10-19T08:33:52.744Z,979.01
2017-10-19T08:34:52.621Z,979.05
2017-10-19T08:36:45.458Z,979.07
2017-10-19T08:37:45.556Z,979.04
2017-10-19T08:39:38.123Z,979.10
2017-10-19T08:40:38.041Z,979.09
2017-10-19T08:42:30.782Z,979.12
2017-10-19T08:43:30.650Z,979.14
2017-10-19T08:45:23.397Z,979.16
2017-10-19T08:46:23.317Z,979.17
2017-10-19T08:48:16.287Z,979.16
2017-10-19T08:49:16.029Z,979.17
2017-10-19T08:51:10.027Z,979.15
2017-10-19T08:52:09.131Z,979.14
2017-10-19T08:54:01.922Z,979.15
2017-10-19T08:55:01.793Z,979.14
2017-10-19T08:56:54.555Z,979.12
2017-10-19T08:57:54.471Z,979.09
2017-10-19T08:59:47.315Z,979.15
2017-10-19T09:00:47.199Z,979.11
2017-10-19T09:02:40.389Z,979.14
2017-10-19T09:03:39.885Z,979.19
2017-10-19T09:05:32.635Z,979.17
2017-10-19T09:06:32.551Z,979.20
2017-10-19T09:08:25.522Z,979.23
2017-10-19T09:09:25.392Z,979.25
2017-10-19T09:11:18.243Z,979.26
2017-10-19T09:12:18.060Z,979.31
2017-10-19T09:14:10.895Z,979.33
2017-10-19T09:15:10.736Z,979.34
2017-10-19T09:17:03.943Z,979.37
2017-10-19T09:18:03.860Z,979.38
2017-10-19T09:19:56.707Z,979.36
2017-10-19T09:20:56.577Z,979.33
2017-10-19T09:22:49.545Z,979.30
2017-10-19T09:23:49.252Z,979.31
2017-10-19T09:25:42.006Z,979.30
2017-10-19T09:26:41.901Z,979.28
2017-10-19T09:28:34.698Z,979.30
2017-10-19T09:29:34.570Z,979.28
2017-10-19T09:31:27.299Z,979.25
2017-10-19T09:32:27.220Z,979.27
2017-10-19T09:34:20.177Z,979.29
2017-10-19T09:35:20.045Z,979.31
2017-10-19T09:37:13.345Z,979.26
2017-10-19T09:38:13.289Z,979.30
2017-10-19T09:40:05.994Z,979.30
2017-10-19T09:41:05.854Z,979.29
2017-10-19T09:42:58.652Z,979.29
2017-10-19T09:43:58.525Z,979.29
2017-10-19T09:45:51.283Z,979.33
2017-10-19T09:46:51.199Z,979.30
2017-10-19T09:48:44.057Z,979.32
2017-10-19T09:49:43.879Z,979.29
2017-10-19T09:51:36.593Z,979.33
2017-10-19T09:52:36.505Z,979.29
2017-10-19T09:54:29.293Z,979.30
2017-10-19T09:55:29.165Z,979.30
2017-10-19T09:57:22.284Z,979.31
2017-10-19T09:58:22.198Z,979.32
2017-10-19T10:00:15.346Z,979.34
2017-10-19T10:01:14.943Z,979.36
2017-10-19T10:03:07.770Z,979.36
2017-10-19T10:04:07.529Z,979.36
2017-10-19T10:06:00.281Z,979.35
2017-10-19T10:07:00.199Z,979.42
2017-10-19T10:08:53.008Z,979.38
2017-10-19T10:09:52.874Z,979.41
2017-10-19T10:11:45.815Z,979.44
2017-10-19T10:12:45.677Z,979.45
2017-10-19T10:14:38.344Z,979.39
2017-10-19T10:15:38.249Z,979.35
2017-10-19T10:17:30.946Z,979.36
2017-10-19T10:18:30.865Z,979.34
2017-10-19T10:20:23.786Z,979.32
2017-10-19T10:21:23.659Z,979.32
2017-10-19T10:23:16.446Z,979.32
2017-10-19T10:24:16.310Z,979.32
2017-10-19T10:26:09.071Z,979.32
2017-10-19T10:27:08.962Z,979.32
2017-10-19T10:29:01.816Z,979.34
2017-10-19T10:30:01.684Z,979.31
2017-10-19T10:31:54.452Z,979.27
2017-10-19T10:32:54.372Z,979.31
2017-10-19T10:34:47.281Z,979.27
2017-10-19T10:35:47.079Z,979.31
2017-10-19T10:37:39.881Z,979.32
2017-10-19T10:38:39.754Z,979.30
2017-10-19T10:40:32.518Z,979.30
2017-10-19T10:41:32.386Z,979.32
2017-10-19T10:43:25.278Z,979.30
2017-10-19T10:44:25.151Z,979.29
2017-10-19T10:46:17.922Z,979.33
2017-10-19T10:47:17.839Z,979.29
2017-10-19T10:49:10.943Z,979.29
2017-10-19T10:50:10.551Z,979.25
2017-10-19T10:52:03.229Z,979.22
2017-10-19T10:53:03.146Z,979.21
2017-10-19T10:54:55.970Z,979.13
2017-10-19T10:55:55.844Z,979.14
2017-10-19T10:57:48.631Z,979.09
2017-10-19T10:58:48.544Z,979.08
2017-10-19T11:00:41.435Z,979.05
2017-10-19T11:01:41.240Z,979.06
2017-10-19T11:03:33.962Z,979.05
2017-10-19T11:04:33.827Z,979.07
2017-10-19T11:06:26.598Z,978.97
2017-10-19T11:07:26.515Z,978.94
2017-10-19T11:09:19.379Z,978.90
2017-10-19T11:10:19.204Z,978.89
2017-10-19T11:12:11.985Z,978.90
2017-10-19T11:13:11.901Z,978.90
2017-10-19T11:15:04.686Z,978.91
2017-10-19T11:16:04.526Z,978.91
2017-10-19T11:17:57.342Z,978.96
2017-10-19T11:18:57.269Z,978.99
2017-10-19T11:20:50.139Z,978.97
2017-10-19T11:21:50.009Z,978.91
2017-10-19T11:23:43.337Z,978.90
2017-10-19T11:24:43.235Z,978.92
2017-10-19T11:26:36.391Z,978.92
2017-10-19T11:27:36.293Z,978.94
2017-10-19T11:29:29.074Z,978.90
2017-10-19T11:30:28.945Z,978.87
2017-10-19T11:32:22.216Z,978.87
2017-10-19T11:33:22.137Z,978.89
2017-10-19T11:35:14.973Z,978.90
2017-10-19T11:36:14.853Z,978.90
2017-10-19T11:38:07.572Z,978.87
2017-10-19T11:39:07.489Z,978.85
2017-10-19T11:41:00.287Z,978.88
2017-10-19T11:42:00.156Z,978.85
2017-10-19T11:43:52.996Z,978.87
2017-10-19T11:44:52.875Z,978.85
2017-10-19T11:46:45.717Z,978.86
2017-10-19T11:47:45.665Z,978.84
2017-10-19T11:49:38.308Z,978.81
2017-10-19T11:50:38.183Z,978.84
2017-10-19T11:52:30.938Z,978.78
2017-10-19T11:53:30.859Z,978.80
2017-10-19T11:55:23.662Z,978.80
2017-10-19T11:56:23.537Z,978.79
2017-10-19T11:58:16.350Z,978.78
2017-10-19T11:59:16.202Z,978.73
2017-10-19T12:01:09.745Z,978.72
2017-10-19T12:02:09.371Z,978.73
2017-10-19T12:04:02.656Z,978.70
2017-10-19T12:05:02.664Z,978.68
2017-10-19T12:06:55.371Z,978.69
2017-10-19T12:07:55.289Z,978.64
2017-10-19T12:09:48.232Z,978.63
2017-10-19T12:10:48.056Z,978.62
2017-10-19T12:12:41.009Z,978.62
2017-10-19T12:13:40.718Z,978.66
2017-10-19T12:15:33.493Z,978.59
2017-10-19T12:16:33.366Z,978.61
2017-10-19T12:18:26.289Z,978.60
2017-10-19T12:19:26.165Z,978.58
2017-10-19T12:21:18.943Z,978.50
2017-10-19T12:22:18.851Z,978.52
2017-10-19T12:24:12.007Z,978.49
2017-10-19T12:25:11.563Z,978.50
2017-10-19T12:27:04.246Z,978.54
2017-10-19T12:28:04.246Z,978.48
2017-10-19T12:29:57.159Z,978.48
2017-10-19T12:30:57.034Z,978.50
2017-10-19T12:32:49.776Z,978.46
2017-10-19T12:33:49.705Z,978.44
2017-10-19T12:35:42.491Z,978.44
2017-10-19T12:36:42.576Z,978.38
2017-10-19T12:38:35.165Z,978.39
2017-10-19T12:39:35.024Z,978.38
2017-10-19T12:41:27.827Z,978.34
2017-10-19T12:42:27.756Z,978.34
2017-10-19T12:44:20.580Z,978.32
2017-10-19T12:45:20.438Z,978.30
2017-10-19T12:47:13.287Z,978.28
2017-10-19T12:48:13.155Z,978.26
2017-10-19T12:50:06.157Z,978.27
2017-10-19T12:51:05.801Z,978.28
2017-10-19T12:52:58.558Z,978.25
2017-10-19T12:53:58.482Z,978.22
2017-10-19T12:55:58.987Z,978.22
2017-10-19T12:56:51.223Z,978.22
2017-10-19T12:58:44.057Z,978.20
2017-10-19T12:59:44.078Z,978.20
2017-10-19T13:01:36.700Z,978.17
2017-10-19T13:02:36.604Z,978.11
2017-10-19T13:04:29.371Z,978.04
2017-10-19T13:05:29.243Z,978.01
2017-10-19T13:07:22.088Z,978.02
2017-10-19T13:08:21.957Z,978.00
2017-10-19T13:10:15.118Z,978.02
2017-10-19T13:11:14.634Z,978.02
2017-10-19T13:13:07.529Z,978.02
2017-10-19T13:14:07.286Z,978.03
2017-10-19T13:16:00.249Z,978.03
2017-10-19T13:17:00.123Z,977.98
2017-10-19T13:18:53.107Z,978.00
2017-10-19T13:19:52.984Z,977.99
2017-10-19T13:21:46.355Z,977.97
2017-10-19T13:22:46.170Z,977.92
2017-10-19T13:24:39.002Z,977.88
2017-10-19T13:25:38.820Z,977.91
2017-10-19T13:27:31.587Z,977.82
2017-10-19T13:28:31.513Z,977.82
2017-10-19T13:30:24.348Z,977.74
2017-10-19T13:31:24.221Z,977.75
2017-10-19T13:33:17.252Z,977.73
2017-10-19T13:34:16.994Z,977.72
2017-10-19T13:36:10.871Z,977.69
2017-10-19T13:37:09.705Z,977.68
2017-10-19T13:39:02.494Z,977.62
2017-10-19T13:40:02.326Z,977.61
2017-10-19T13:41:55.639Z,977.66
2017-10-19T13:42:55.552Z,977.68
2017-10-19T13:44:48.415Z,977.68
2017-10-19T13:45:48.291Z,977.68
2017-10-19T13:47:41.134Z,977.66
2017-10-19T13:48:41.019Z,977.64
2017-10-19T13:50:33.756Z,977.62
2017-10-19T13:51:33.677Z,977.62
2017-10-19T13:53:26.674Z,977.65
2017-10-19T13:54:26.484Z,977.62
2017-10-19T13:56:19.852Z,977.63
2017-10-19T13:57:19.713Z,977.66
2017-10-19T13:59:13.755Z,977.67
2017-10-19T14:00:12.422Z,977.69
2017-10-19T14:02:05.094Z,977.70
2017-10-19T14:03:05.020Z,977.72
2017-10-19T14:04:57.869Z,977.71
2017-10-19T14:05:57.811Z,977.65
2017-10-19T14:07:51.017Z,977.63
2017-10-19T14:08:50.956Z,977.61
2017-10-19T14:10:43.785Z,977.54
2017-10-19T14:11:43.642Z,977.55
2017-10-19T14:13:36.330Z,977.53
2017-10-19T14:14:36.264Z,977.50
2017-10-19T14:16:29.547Z,977.45
2017-10-19T14:17:30.194Z,977.44
2017-10-19T14:19:22.475Z,977.41
2017-10-19T14:20:22.413Z,977.43
2017-10-19T14:22:15.542Z,977.44
2017-10-19T14:23:15.385Z,977.47
2017-10-19T14:25:08.217Z,977.50
2017-10-19T14:26:08.156Z,977.50
2017-10-19T14:28:01.113Z,977.51
2017-10-19T14:29:00.845Z,977.49
2017-10-19T14:30:54.207Z,977.41
2017-10-19T14:31:54.703Z,977.43
2017-10-19T14:33:46.666Z,977.37
2017-10-19T14:34:46.562Z,977.36
2017-10-19T14:36:40.254Z,977.35
2017-10-19T14:37:39.321Z,977.33
2017-10-19T14:39:32.039Z,977.31
2017-10-19T14:40:32.016Z,977.30
2017-10-19T14:42:24.808Z,977.29
2017-10-19T14:43:24.777Z,977.27
2017-10-19T14:45:17.523Z,977.31
2017-10-19T14:46:17.439Z,977.25
2017-10-19T14:48:11.373Z,977.23
2017-10-19T14:49:10.828Z,977.23
2017-10-19T14:51:03.426Z,977.21
2017-10-19T14:52:03.206Z,977.23
2017-10-19T14:53:56.142Z,977.26
2017-10-19T14:54:56.016Z,977.22
2017-10-19T14:56:48.844Z,977.19
2017-10-19T14:57:48.831Z,977.18
2017-10-19T14:59:41.622Z,977.14
2017-10-19T15:00:41.414Z,977.10
2017-10-19T15:02:34.181Z,977.12
2017-10-19T15:03:34.045Z,977.15
2017-10-19T15:05:26.945Z,977.12
2017-10-19T15:06:26.772Z,977.11
2017-10-19T15:08:19.585Z,977.12
2017-10-19T15:09:19.461Z,977.09
2017-10-19T15:11:15.697Z,977.10
2017-10-19T15:12:13.175Z,977.05
2017-10-19T15:14:05.229Z,977.11
2017-10-19T15:15:04.970Z,977.05
2017-10-19T15:16:58.253Z,977.05
2017-10-19T15:17:58.171Z,977.07
2017-10-19T15:19:52.967Z,977.07
2017-10-19T15:20:52.746Z,977.05
2017-10-19T15:22:46.594Z,977.06
2017-10-19T15:23:46.717Z,977.08
2017-10-19T15:25:38.244Z,977.08
2017-10-19T15:26:37.994Z,977.09
2017-10-19T15:28:33.273Z,977.06
2017-10-19T15:29:32.982Z,977.01
2017-10-19T15:31:27.380Z,977.01
2017-10-19T15:32:27.291Z,977.01
2017-10-19T15:34:21.115Z,977.03
2017-10-19T15:35:20.312Z,977.03
2017-10-19T15:37:16.631Z,977.08
2017-10-19T15:38:15.075Z,977.06
2017-10-19T15:40:05.666Z,977.11
2017-10-19T15:41:05.404Z,977.09
2017-10-19T15:42:59.824Z,977.11
2017-10-19T15:43:59.748Z,977.15
2017-10-19T15:45:54.795Z,977.16
2017-10-19T15:46:54.542Z,977.20
2017-10-19T15:48:47.301Z,977.20
2017-10-19T15:49:47.342Z,977.19
2017-10-19T15:51:41.298Z,977.21
2017-10-19T15:52:40.292Z,977.25
2017-10-19T15:54:35.289Z,977.24
2017-10-19T15:55:33.194Z,977.23
2017-10-19T15:57:27.302Z,977.24
2017-10-19T15:58:27.555Z,977.24
2017-10-19T16:00:21.574Z,977.23
2017-10-19T16:01:19.894Z,977.20
2017-10-19T16:03:14.839Z,977.22
2017-10-19T16:04:12.885Z,977.22
2017-10-19T16:06:05.884Z,977.21
2017-10-19T16:07:05.621Z,977.22
2017-10-19T16:08:59.104Z,977.20
2017-10-19T16:09:58.889Z,977.19
2017-10-19T16:11:52.164Z,977.22
2017-10-19T16:12:52.397Z,977.21
2017-10-19T16:14:44.948Z,977.21
2017-10-19T16:15:45.138Z,977.22
2017-10-19T16:17:37.461Z,977.26
2017-10-19T16:18:37.560Z,977.25
2017-10-19T16:20:30.632Z,977.25
2017-10-19T16:21:30.551Z,977.22
2017-10-19T16:23:23.739Z,977.22
2017-10-19T16:24:23.614Z,977.19
2017-10-19T16:26:16.881Z,977.19
2017-10-19T16:27:16.618Z,977.23
2017-10-19T16:29:09.182Z,977.21
2017-10-19T16:30:08.941Z,977.23
2017-10-19T16:32:01.717Z,977.33
2017-10-19T16:33:01.685Z,977.31
2017-10-19T16:34:55.115Z,977.36
2017-10-19T16:35:55.035Z,977.37
2017-10-19T16:37:47.718Z,977.39
2017-10-19T16:38:47.581Z,977.40
2017-10-19T16:40:40.487Z,977.43
2017-10-19T16:41:41.091Z,977.42
2017-10-19T16:43:33.104Z,977.39
2017-10-19T16:44:32.996Z,977.41
2017-10-19T16:46:25.892Z,977.46
2017-10-19T16:47:25.823Z,977.47
2017-10-19T16:49:18.651Z,977.49
2017-10-19T16:50:18.487Z,977.49
2017-10-19T16:52:14.397Z,977.45
2017-10-19T16:53:11.137Z,977.47
2017-10-19T16:55:03.906Z,977.48
2017-10-19T16:56:03.773Z,977.46
2017-10-19T16:57:56.591Z,977.44
2017-10-19T16:58:56.506Z,977.47
2017-10-19T17:00:49.298Z,977.47
2017-10-19T17:01:49.179Z,977.47
2017-10-19T17:03:42.053Z,977.45
2017-10-19T17:04:41.834Z,977.47
2017-10-19T17:06:35.107Z,977.44
2017-10-19T17:07:34.977Z,977.47
2017-10-19T17:09:27.942Z,977.47
2017-10-19T17:10:27.650Z,977.45
2017-10-19T17:12:20.450Z,977.44
2017-10-19T17:13:20.384Z,977.40
2017-10-19T17:15:13.289Z,977.42
2017-10-19T17:16:13.038Z,977.41
2017-10-19T17:18:06.130Z,977.38
2017-10-19T17:19:06.154Z,977.40
2017-10-19T17:20:58.810Z,977.36
2017-10-19T17:21:58.552Z,977.36
2017-10-19T17:23:52.024Z,977.36
2017-10-19T17:24:51.940Z,977.35
2017-10-19T17:26:46.824Z,977.37
2017-10-19T17:27:46.311Z,977.38
2017-10-19T17:29:38.050Z,977.30
2017-10-19T17:30:38.125Z,977.30
2017-10-19T17:32:32.095Z,977.32
2017-10-19T17:33:31.829Z,977.31
2017-10-19T17:35:27.068Z,977.30
2017-10-19T17:36:27.686Z,977.33
2017-10-19T17:38:20.567Z,977.31
2017-10-19T17:39:19.468Z,977.33
2017-10-19T17:41:13.932Z,977.27
2017-10-19T17:42:13.589Z,977.31
2017-10-19T17:44:05.038Z,977.30
2017-10-19T17:45:04.940Z,977.32
2017-10-19T17:46:58.681Z,977.33
2017-10-19T17:47:58.416Z,977.37
2017-10-19T17:49:52.633Z,977.34
2017-10-19T17:50:51.694Z,977.34
2017-10-19T17:52:45.870Z,977.31
2017-10-19T17:53:45.546Z,977.35
2017-10-19T17:55:37.991Z,977.30
2017-10-19T17:56:37.295Z,977.29
2017-10-19T17:58:30.766Z,977.29